sensor_id;sensor_type;location;lat;lon;timestamp;temperature;humidity
20911;DHT22;10615;42.702;23.314;2023-07-13T00:00:26;24.00;69.10
20911;DHT22;10615;42.702;23.314;2023-07-13T00:01:28;24.00;69.40
20911;DHT22;10615;42.702;23.314;2023-07-13T00:02:29;24.00;69.50
20911;DHT22;10615;42.702;23.314;2023-07-13T00:03:29;24.00;69.80
20911;DHT22;10615;42.702;23.314;2023-07-13T00:04:35;24.00;70.10
20911;DHT22;10615;42.702;23.314;2023-07-13T00:05:36;24.00;70.10
20911;DHT22;10615;42.702;23.314;2023-07-13T00:06:37;24.00;70.10
20911;DHT22;10615;42.702;23.314;2023-07-13T00:07:37;24.00;70.20
20911;DHT22;10615;42.702;23.314;2023-07-13T00:08:38;24.00;70.20
20911;DHT22;10615;42.702;23.314;2023-07-13T00:09:39;24.10;70.40
20911;DHT22;10615;42.702;23.314;2023-07-13T00:10:41;24.00;70.40
20911;DHT22;10615;42.702;23.314;2023-07-13T00:11:42;24.00;70.50
20911;DHT22;10615;42.702;23.314;2023-07-13T00:12:44;24.00;70.60
20911;DHT22;10615;42.702;23.314;2023-07-13T00:13:45;24.00;70.70
20911;DHT22;10615;42.702;23.314;2023-07-13T00:14:45;24.00;70.70
20911;DHT22;10615;42.702;23.314;2023-07-13T00:15:46;24.00;70.60
20911;DHT22;10615;42.702;23.314;2023-07-13T00:16:47;24.00;70.70
20911;DHT22;10615;42.702;23.314;2023-07-13T00:17:54;24.00;70.70
20911;DHT22;10615;42.702;23.314;2023-07-13T00:18:55;24.00;70.70
20911;DHT22;10615;42.702;23.314;2023-07-13T00:19:56;24.00;70.70
20911;DHT22;10615;42.702;23.314;2023-07-13T00:20:58;24.00;70.70
20911;DHT22;10615;42.702;23.314;2023-07-13T00:22:05;23.90;70.70
20911;DHT22;10615;42.702;23.314;2023-07-13T00:23:06;23.90;71.00
20911;DHT22;10615;42.702;23.314;2023-07-13T00:24:13;23.90;71.10
20911;DHT22;10615;42.702;23.314;2023-07-13T00:25:14;23.90;71.20
20911;DHT22;10615;42.702;23.314;2023-07-13T00:27:17;23.80;70.70
20911;DHT22;10615;42.702;23.314;2023-07-13T00:28:18;23.80;71.70
20911;DHT22;10615;42.702;23.314;2023-07-13T00:29:19;23.80;71.90
20911;DHT22;10615;42.702;23.314;2023-07-13T00:30:21;23.70;72.00
20911;DHT22;10615;42.702;23.314;2023-07-13T00:31:22;23.70;72.00
20911;DHT22;10615;42.702;23.314;2023-07-13T00:32:23;23.70;72.20
20911;DHT22;10615;42.702;23.314;2023-07-13T00:33:26;23.70;72.30
20911;DHT22;10615;42.702;23.314;2023-07-13T00:34:27;23.70;72.50
20911;DHT22;10615;42.702;23.314;2023-07-13T00:35:30;23.60;72.60
20911;DHT22;10615;42.702;23.314;2023-07-13T00:36:31;23.60;72.80
20911;DHT22;10615;42.702;23.314;2023-07-13T00:37:32;23.60;73.00
20911;DHT22;10615;42.702;23.314;2023-07-13T00:38:34;23.60;73.20
20911;DHT22;10615;42.702;23.314;2023-07-13T00:39:35;23.60;73.60
20911;DHT22;10615;42.702;23.314;2023-07-13T00:40:36;23.50;73.90
20911;DHT22;10615;42.702;23.314;2023-07-13T00:41:36;23.50;74.10
20911;DHT22;10615;42.702;23.314;2023-07-13T00:42:37;23.50;74.20
20911;DHT22;10615;42.702;23.314;2023-07-13T00:43:38;23.50;74.30
20911;DHT22;10615;42.702;23.314;2023-07-13T00:44:39;23.40;74.50
20911;DHT22;10615;42.702;23.314;2023-07-13T00:46:44;23.40;74.80
20911;DHT22;10615;42.702;23.314;2023-07-13T00:47:46;23.40;75.00
20911;DHT22;10615;42.702;23.314;2023-07-13T00:48:48;23.30;75.10
20911;DHT22;10615;42.702;23.314;2023-07-13T00:49:49;23.30;75.40
20911;DHT22;10615;42.702;23.314;2023-07-13T00:50:52;23.30;75.60
20911;DHT22;10615;42.702;23.314;2023-07-13T00:51:58;23.30;75.70
20911;DHT22;10615;42.702;23.314;2023-07-13T00:53:00;23.30;75.70
20911;DHT22;10615;42.702;23.314;2023-07-13T00:54:04;23.30;75.90
20911;DHT22;10615;42.702;23.314;2023-07-13T00:55:06;23.30;75.90
20911;DHT22;10615;42.702;23.314;2023-07-13T00:56:08;23.20;76.00
20911;DHT22;10615;42.702;23.314;2023-07-13T00:57:14;23.30;76.20
20911;DHT22;10615;42.702;23.314;2023-07-13T00:58:15;23.30;76.30
20911;DHT22;10615;42.702;23.314;2023-07-13T00:59:17;23.30;76.30
20911;DHT22;10615;42.702;23.314;2023-07-13T01:00:20;23.20;76.40
20911;DHT22;10615;42.702;23.314;2023-07-13T01:01:22;23.30;76.70
20911;DHT22;10615;42.702;23.314;2023-07-13T01:02:23;23.20;76.90
20911;DHT22;10615;42.702;23.314;2023-07-13T01:03:24;23.20;77.00
20911;DHT22;10615;42.702;23.314;2023-07-13T01:04:25;23.20;77.20
20911;DHT22;10615;42.702;23.314;2023-07-13T01:05:26;23.20;77.50
20911;DHT22;10615;42.702;23.314;2023-07-13T01:06:27;23.10;77.90
20911;DHT22;10615;42.702;23.314;2023-07-13T01:07:28;23.10;78.30
20911;DHT22;10615;42.702;23.314;2023-07-13T01:08:28;23.10;78.60
20911;DHT22;10615;42.702;23.314;2023-07-13T01:09:29;23.00;78.80
20911;DHT22;10615;42.702;23.314;2023-07-13T01:10:30;23.00;78.90
20911;DHT22;10615;42.702;23.314;2023-07-13T01:11:39;23.00;79.10
20911;DHT22;10615;42.702;23.314;2023-07-13T01:12:41;23.00;79.40
20911;DHT22;10615;42.702;23.314;2023-07-13T01:13:42;23.00;79.60
20911;DHT22;10615;42.702;23.314;2023-07-13T01:14:43;23.00;79.80
20911;DHT22;10615;42.702;23.314;2023-07-13T01:15:47;23.00;80.20
20911;DHT22;10615;42.702;23.314;2023-07-13T01:16:48;23.00;80.40
20911;DHT22;10615;42.702;23.314;2023-07-13T01:17:49;23.00;80.90
20911;DHT22;10615;42.702;23.314;2023-07-13T01:18:50;23.00;81.10
20911;DHT22;10615;42.702;23.314;2023-07-13T01:19:50;23.00;81.30
20911;DHT22;10615;42.702;23.314;2023-07-13T01:21:03;23.00;81.30
20911;DHT22;10615;42.702;23.314;2023-07-13T01:22:18;23.00;81.50
20911;DHT22;10615;42.702;23.314;2023-07-13T01:23:19;23.10;81.60
20911;DHT22;10615;42.702;23.314;2023-07-13T01:24:19;23.10;81.70
20911;DHT22;10615;42.702;23.314;2023-07-13T01:25:20;23.00;81.80
20911;DHT22;10615;42.702;23.314;2023-07-13T01:26:21;23.00;82.10
20911;DHT22;10615;42.702;23.314;2023-07-13T01:27:25;23.00;82.40
20911;DHT22;10615;42.702;23.314;2023-07-13T01:28:27;23.00;82.60
20911;DHT22;10615;42.702;23.314;2023-07-13T01:29:28;23.00;82.60
20911;DHT22;10615;42.702;23.314;2023-07-13T01:30:29;23.00;82.70
20911;DHT22;10615;42.702;23.314;2023-07-13T01:31:29;23.00;82.70
20911;DHT22;10615;42.702;23.314;2023-07-13T01:32:30;23.00;82.70
20911;DHT22;10615;42.702;23.314;2023-07-13T01:33:33;23.00;82.80
20911;DHT22;10615;42.702;23.314;2023-07-13T01:34:35;23.00;82.70
20911;DHT22;10615;42.702;23.314;2023-07-13T01:35:36;22.90;82.80
20911;DHT22;10615;42.702;23.314;2023-07-13T01:36:37;22.90;83.10
20911;DHT22;10615;42.702;23.314;2023-07-13T01:37:37;22.90;83.40
20911;DHT22;10615;42.702;23.314;2023-07-13T01:38:38;22.90;83.60
20911;DHT22;10615;42.702;23.314;2023-07-13T01:39:39;22.90;83.70
20911;DHT22;10615;42.702;23.314;2023-07-13T01:40:39;22.90;83.90
20911;DHT22;10615;42.702;23.314;2023-07-13T01:41:40;22.90;84.00
20911;DHT22;10615;42.702;23.314;2023-07-13T01:42:41;22.90;84.00
20911;DHT22;10615;42.702;23.314;2023-07-13T01:43:42;22.90;84.30
20911;DHT22;10615;42.702;23.314;2023-07-13T01:44:42;22.80;84.30
20911;DHT22;10615;42.702;23.314;2023-07-13T01:45:43;22.80;84.50
20911;DHT22;10615;42.702;23.314;2023-07-13T01:46:44;22.70;84.90
20911;DHT22;10615;42.702;23.314;2023-07-13T01:47:45;22.70;85.30
20911;DHT22;10615;42.702;23.314;2023-07-13T01:48:46;22.60;85.70
20911;DHT22;10615;42.702;23.314;2023-07-13T01:49:46;22.60;86.00
20911;DHT22;10615;42.702;23.314;2023-07-13T01:50:47;22.70;86.10
20911;DHT22;10615;42.702;23.314;2023-07-13T01:51:48;22.60;86.10
20911;DHT22;10615;42.702;23.314;2023-07-13T01:52:49;22.60;86.30
20911;DHT22;10615;42.702;23.314;2023-07-13T01:53:49;22.60;86.60
20911;DHT22;10615;42.702;23.314;2023-07-13T01:54:50;22.60;86.80
20911;DHT22;10615;42.702;23.314;2023-07-13T01:55:51;22.60;86.80
20911;DHT22;10615;42.702;23.314;2023-07-13T01:56:51;22.70;86.90
20911;DHT22;10615;42.702;23.314;2023-07-13T01:57:52;22.60;86.80
20911;DHT22;10615;42.702;23.314;2023-07-13T01:58:53;22.60;87.00
20911;DHT22;10615;42.702;23.314;2023-07-13T01:59:53;22.60;87.30
20911;DHT22;10615;42.702;23.314;2023-07-13T02:00:54;22.60;87.40
20911;DHT22;10615;42.702;23.314;2023-07-13T02:01:55;22.60;87.60
20911;DHT22;10615;42.702;23.314;2023-07-13T02:02:55;22.50;87.80
20911;DHT22;10615;42.702;23.314;2023-07-13T02:03:56;22.50;88.20
20911;DHT22;10615;42.702;23.314;2023-07-13T02:04:57;22.40;88.60
20911;DHT22;10615;42.702;23.314;2023-07-13T02:05:58;22.40;89.00
20911;DHT22;10615;42.702;23.314;2023-07-13T02:06:58;22.40;89.30
20911;DHT22;10615;42.702;23.314;2023-07-13T02:07:59;22.40;89.50
20911;DHT22;10615;42.702;23.314;2023-07-13T02:09:00;22.40;89.70
20911;DHT22;10615;42.702;23.314;2023-07-13T02:10:00;22.40;89.90
20911;DHT22;10615;42.702;23.314;2023-07-13T02:11:03;22.40;90.00
20911;DHT22;10615;42.702;23.314;2023-07-13T02:12:04;22.40;90.10
20911;DHT22;10615;42.702;23.314;2023-07-13T02:13:06;22.40;90.20
20911;DHT22;10615;42.702;23.314;2023-07-13T02:14:07;22.40;90.20
20911;DHT22;10615;42.702;23.314;2023-07-13T02:15:09;22.30;90.30
20911;DHT22;10615;42.702;23.314;2023-07-13T02:16:10;22.30;90.30
20911;DHT22;10615;42.702;23.314;2023-07-13T02:17:12;22.30;90.40
20911;DHT22;10615;42.702;23.314;2023-07-13T02:18:12;22.30;90.40
20911;DHT22;10615;42.702;23.314;2023-07-13T02:19:17;22.30;90.40
20911;DHT22;10615;42.702;23.314;2023-07-13T02:20:18;22.30;90.30
20911;DHT22;10615;42.702;23.314;2023-07-13T02:21:18;22.30;90.20
20911;DHT22;10615;42.702;23.314;2023-07-13T02:22:19;22.30;90.20
20911;DHT22;10615;42.702;23.314;2023-07-13T02:23:20;22.20;90.20
20911;DHT22;10615;42.702;23.314;2023-07-13T02:24:20;22.20;90.30
20911;DHT22;10615;42.702;23.314;2023-07-13T02:25:21;22.20;90.40
20911;DHT22;10615;42.702;23.314;2023-07-13T02:26:22;22.10;90.50
20911;DHT22;10615;42.702;23.314;2023-07-13T02:27:22;22.10;90.50
20911;DHT22;10615;42.702;23.314;2023-07-13T02:28:23;22.10;90.50
20911;DHT22;10615;42.702;23.314;2023-07-13T02:29:24;22.10;90.40
20911;DHT22;10615;42.702;23.314;2023-07-13T02:30:25;22.10;90.40
20911;DHT22;10615;42.702;23.314;2023-07-13T02:31:26;22.10;90.50
20911;DHT22;10615;42.702;23.314;2023-07-13T02:32:26;22.10;90.50
20911;DHT22;10615;42.702;23.314;2023-07-13T02:33:27;22.10;90.50
20911;DHT22;10615;42.702;23.314;2023-07-13T02:34:28;22.10;90.50
20911;DHT22;10615;42.702;23.314;2023-07-13T02:35:28;22.10;90.50
20911;DHT22;10615;42.702;23.314;2023-07-13T02:36:29;22.00;90.60
20911;DHT22;10615;42.702;23.314;2023-07-13T02:37:30;22.00;90.60
20911;DHT22;10615;42.702;23.314;2023-07-13T02:38:32;22.00;90.70
20911;DHT22;10615;42.702;23.314;2023-07-13T02:39:34;22.00;90.70
20911;DHT22;10615;42.702;23.314;2023-07-13T02:40:34;22.00;90.70
20911;DHT22;10615;42.702;23.314;2023-07-13T02:41:35;22.00;90.80
20911;DHT22;10615;42.702;23.314;2023-07-13T02:42:36;22.00;90.80
20911;DHT22;10615;42.702;23.314;2023-07-13T02:43:37;22.00;90.90
20911;DHT22;10615;42.702;23.314;2023-07-13T02:44:38;22.00;91.00
20911;DHT22;10615;42.702;23.314;2023-07-13T02:45:38;22.00;91.10
20911;DHT22;10615;42.702;23.314;2023-07-13T02:46:43;22.00;91.10
20911;DHT22;10615;42.702;23.314;2023-07-13T02:47:45;22.00;91.10
20911;DHT22;10615;42.702;23.314;2023-07-13T02:48:46;22.00;91.00
20911;DHT22;10615;42.702;23.314;2023-07-13T02:49:46;22.00;91.00
20911;DHT22;10615;42.702;23.314;2023-07-13T02:50:47;22.00;91.00
20911;DHT22;10615;42.702;23.314;2023-07-13T02:51:48;22.00;90.90
20911;DHT22;10615;42.702;23.314;2023-07-13T02:52:48;22.00;90.80
20911;DHT22;10615;42.702;23.314;2023-07-13T02:53:49;22.00;90.70
20911;DHT22;10615;42.702;23.314;2023-07-13T02:54:50;22.00;90.80
20911;DHT22;10615;42.702;23.314;2023-07-13T02:55:50;22.00;90.80
20911;DHT22;10615;42.702;23.314;2023-07-13T02:56:51;22.00;90.80
20911;DHT22;10615;42.702;23.314;2023-07-13T02:57:52;22.00;90.90
20911;DHT22;10615;42.702;23.314;2023-07-13T02:58:52;22.00;90.80
20911;DHT22;10615;42.702;23.314;2023-07-13T02:59:54;21.90;90.80
20911;DHT22;10615;42.702;23.314;2023-07-13T03:00:55;21.90;90.80
20911;DHT22;10615;42.702;23.314;2023-07-13T03:01:56;21.90;90.90
20911;DHT22;10615;42.702;23.314;2023-07-13T03:02:57;21.90;90.90
20911;DHT22;10615;42.702;23.314;2023-07-13T03:03:57;21.90;90.90
20911;DHT22;10615;42.702;23.314;2023-07-13T03:04:58;21.90;91.00
20911;DHT22;10615;42.702;23.314;2023-07-13T03:06:01;21.90;90.90
20911;DHT22;10615;42.702;23.314;2023-07-13T03:07:04;21.90;91.00
20911;DHT22;10615;42.702;23.314;2023-07-13T03:08:05;21.90;91.00
20911;DHT22;10615;42.702;23.314;2023-07-13T03:09:06;21.90;91.10
20911;DHT22;10615;42.702;23.314;2023-07-13T03:10:07;21.90;91.10
20911;DHT22;10615;42.702;23.314;2023-07-13T03:11:15;21.90;91.00
20911;DHT22;10615;42.702;23.314;2023-07-13T03:12:16;21.90;90.90
20911;DHT22;10615;42.702;23.314;2023-07-13T03:13:17;21.90;90.90
20911;DHT22;10615;42.702;23.314;2023-07-13T03:14:17;21.90;91.00
20911;DHT22;10615;42.702;23.314;2023-07-13T03:15:18;21.90;91.10
20911;DHT22;10615;42.702;23.314;2023-07-13T03:16:18;21.90;91.10
20911;DHT22;10615;42.702;23.314;2023-07-13T03:17:19;21.90;91.10
20911;DHT22;10615;42.702;23.314;2023-07-13T03:18:20;21.90;91.50
20911;DHT22;10615;42.702;23.314;2023-07-13T03:19:21;22.00;91.10
20911;DHT22;10615;42.702;23.314;2023-07-13T03:20:21;22.00;91.00
20911;DHT22;10615;42.702;23.314;2023-07-13T03:21:22;22.10;91.00
20911;DHT22;10615;42.702;23.314;2023-07-13T03:22:23;22.10;90.90
20911;DHT22;10615;42.702;23.314;2023-07-13T03:23:24;22.20;90.80
20911;DHT22;10615;42.702;23.314;2023-07-13T03:24:25;22.30;90.70
20911;DHT22;10615;42.702;23.314;2023-07-13T03:25:26;22.30;90.50
20911;DHT22;10615;42.702;23.314;2023-07-13T03:26:26;22.30;90.40
20911;DHT22;10615;42.702;23.314;2023-07-13T03:27:27;22.30;90.20
20911;DHT22;10615;42.702;23.314;2023-07-13T03:28:28;22.40;90.00
20911;DHT22;10615;42.702;23.314;2023-07-13T03:29:28;22.40;89.80
20911;DHT22;10615;42.702;23.314;2023-07-13T03:30:29;22.40;89.70
20911;DHT22;10615;42.702;23.314;2023-07-13T03:31:33;22.40;89.70
20911;DHT22;10615;42.702;23.314;2023-07-13T03:32:34;22.50;89.70
20911;DHT22;10615;42.702;23.314;2023-07-13T03:33:35;22.50;89.70
20911;DHT22;10615;42.702;23.314;2023-07-13T03:34:36;22.50;89.60
20911;DHT22;10615;42.702;23.314;2023-07-13T03:35:40;22.60;89.70
20911;DHT22;10615;42.702;23.314;2023-07-13T03:36:41;22.60;89.40
20911;DHT22;10615;42.702;23.314;2023-07-13T03:37:42;22.70;89.20
20911;DHT22;10615;42.702;23.314;2023-07-13T03:38:43;22.80;88.80
20911;DHT22;10615;42.702;23.314;2023-07-13T03:39:43;22.90;88.40
20911;DHT22;10615;42.702;23.314;2023-07-13T03:40:44;22.90;87.90
20911;DHT22;10615;42.702;23.314;2023-07-13T03:41:45;23.00;87.30
20911;DHT22;10615;42.702;23.314;2023-07-13T03:42:45;23.10;86.90
20911;DHT22;10615;42.702;23.314;2023-07-13T03:43:46;23.30;86.50
20911;DHT22;10615;42.702;23.314;2023-07-13T03:44:48;23.40;85.80
20911;DHT22;10615;42.702;23.314;2023-07-13T03:45:52;23.50;85.10
20911;DHT22;10615;42.702;23.314;2023-07-13T03:46:53;23.50;84.40
20911;DHT22;10615;42.702;23.314;2023-07-13T03:47:54;23.70;83.80
20911;DHT22;10615;42.702;23.314;2023-07-13T03:48:56;23.80;83.20
20911;DHT22;10615;42.702;23.314;2023-07-13T03:49:57;23.90;82.60
20911;DHT22;10615;42.702;23.314;2023-07-13T03:50:57;24.10;82.00
20911;DHT22;10615;42.702;23.314;2023-07-13T03:51:58;24.30;81.30
20911;DHT22;10615;42.702;23.314;2023-07-13T03:53:00;24.40;80.40
20911;DHT22;10615;42.702;23.314;2023-07-13T03:54:00;24.60;79.70
20911;DHT22;10615;42.702;23.314;2023-07-13T03:55:03;24.80;78.70
20911;DHT22;10615;42.702;23.314;2023-07-13T03:56:04;24.80;77.50
20911;DHT22;10615;42.702;23.314;2023-07-13T03:57:05;24.90;77.00
20911;DHT22;10615;42.702;23.314;2023-07-13T03:58:32;25.10;76.40
20911;DHT22;10615;42.702;23.314;2023-07-13T03:59:32;25.30;75.30
20911;DHT22;10615;42.702;23.314;2023-07-13T04:00:34;25.50;74.80
20911;DHT22;10615;42.702;23.314;2023-07-13T04:01:34;25.80;74.00
20911;DHT22;10615;42.702;23.314;2023-07-13T04:02:35;25.90;73.00
20911;DHT22;10615;42.702;23.314;2023-07-13T04:03:38;26.10;72.30
20911;DHT22;10615;42.702;23.314;2023-07-13T04:04:38;26.30;71.60
20911;DHT22;10615;42.702;23.314;2023-07-13T04:05:41;26.50;70.80
20911;DHT22;10615;42.702;23.314;2023-07-13T04:06:41;26.70;69.90
20911;DHT22;10615;42.702;23.314;2023-07-13T04:07:42;26.90;69.00
20911;DHT22;10615;42.702;23.314;2023-07-13T04:08:42;27.00;68.20
20911;DHT22;10615;42.702;23.314;2023-07-13T04:09:43;27.20;67.60
20911;DHT22;10615;42.702;23.314;2023-07-13T04:10:44;27.40;66.90
20911;DHT22;10615;42.702;23.314;2023-07-13T04:11:44;27.60;66.00
20911;DHT22;10615;42.702;23.314;2023-07-13T04:12:45;27.80;65.40
20911;DHT22;10615;42.702;23.314;2023-07-13T04:13:46;28.10;64.30
20911;DHT22;10615;42.702;23.314;2023-07-13T04:14:47;28.30;63.50
20911;DHT22;10615;42.702;23.314;2023-07-13T04:15:48;28.50;62.60
20911;DHT22;10615;42.702;23.314;2023-07-13T04:16:48;28.70;61.80
20911;DHT22;10615;42.702;23.314;2023-07-13T04:17:49;28.80;61.10
20911;DHT22;10615;42.702;23.314;2023-07-13T04:18:50;29.10;60.80
20911;DHT22;10615;42.702;23.314;2023-07-13T04:19:55;29.30;60.00
20911;DHT22;10615;42.702;23.314;2023-07-13T04:20:55;29.60;59.40
20911;DHT22;10615;42.702;23.314;2023-07-13T04:21:56;29.90;58.40
20911;DHT22;10615;42.702;23.314;2023-07-13T04:22:57;30.10;57.90
20911;DHT22;10615;42.702;23.314;2023-07-13T04:23:58;30.40;57.00
20911;DHT22;10615;42.702;23.314;2023-07-13T04:24:59;30.70;56.30
20911;DHT22;10615;42.702;23.314;2023-07-13T04:25:59;30.90;55.80
20911;DHT22;10615;42.702;23.314;2023-07-13T04:27:00;31.20;55.10
20911;DHT22;10615;42.702;23.314;2023-07-13T04:28:03;31.50;54.30
20911;DHT22;10615;42.702;23.314;2023-07-13T04:29:05;31.70;53.80
20911;DHT22;10615;42.702;23.314;2023-07-13T04:30:07;31.90;53.30
20911;DHT22;10615;42.702;23.314;2023-07-13T04:31:07;32.40;53.60
20911;DHT22;10615;42.702;23.314;2023-07-13T04:32:08;32.80;51.90
20911;DHT22;10615;42.702;23.314;2023-07-13T04:34:10;33.70;49.30
20911;DHT22;10615;42.702;23.314;2023-07-13T04:35:11;34.10;49.10
20911;DHT22;10615;42.702;23.314;2023-07-13T04:36:12;34.50;48.30
20911;DHT22;10615;42.702;23.314;2023-07-13T04:37:12;35.00;47.40
20911;DHT22;10615;42.702;23.314;2023-07-13T04:38:13;35.50;46.70
20911;DHT22;10615;42.702;23.314;2023-07-13T04:39:15;36.00;45.60
20911;DHT22;10615;42.702;23.314;2023-07-13T04:40:17;36.40;44.90
20911;DHT22;10615;42.702;23.314;2023-07-13T04:41:18;36.90;44.10
20911;DHT22;10615;42.702;23.314;2023-07-13T04:42:19;37.50;43.40
20911;DHT22;10615;42.702;23.314;2023-07-13T04:43:20;38.00;42.50
20911;DHT22;10615;42.702;23.314;2023-07-13T04:44:20;38.40;41.50
20911;DHT22;10615;42.702;23.314;2023-07-13T04:45:21;38.90;40.80
20911;DHT22;10615;42.702;23.314;2023-07-13T04:46:22;39.30;40.10
20911;DHT22;10615;42.702;23.314;2023-07-13T04:47:23;39.70;39.50
20911;DHT22;10615;42.702;23.314;2023-07-13T04:48:24;40.10;38.70
20911;DHT22;10615;42.702;23.314;2023-07-13T04:49:24;40.30;38.00
20911;DHT22;10615;42.702;23.314;2023-07-13T04:50:25;40.60;37.60
20911;DHT22;10615;42.702;23.314;2023-07-13T04:51:25;40.80;37.00
20911;DHT22;10615;42.702;23.314;2023-07-13T04:52:26;41.00;36.70
20911;DHT22;10615;42.702;23.314;2023-07-13T04:54:28;41.60;35.10
20911;DHT22;10615;42.702;23.314;2023-07-13T04:55:29;41.60;35.30
20911;DHT22;10615;42.702;23.314;2023-07-13T04:56:31;41.50;34.90
20911;DHT22;10615;42.702;23.314;2023-07-13T04:57:31;41.20;34.80
20911;DHT22;10615;42.702;23.314;2023-07-13T04:58:33;40.70;34.70
20911;DHT22;10615;42.702;23.314;2023-07-13T04:59:34;40.30;35.10
20911;DHT22;10615;42.702;23.314;2023-07-13T05:00:35;39.90;35.50
20911;DHT22;10615;42.702;23.314;2023-07-13T05:01:35;39.50;35.80
20911;DHT22;10615;42.702;23.314;2023-07-13T05:02:38;39.10;36.10
20911;DHT22;10615;42.702;23.314;2023-07-13T05:03:39;38.90;36.60
20911;DHT22;10615;42.702;23.314;2023-07-13T05:04:40;38.80;37.00
20911;DHT22;10615;42.702;23.314;2023-07-13T05:05:40;38.70;37.40
20911;DHT22;10615;42.702;23.314;2023-07-13T05:06:41;38.80;37.40
20911;DHT22;10615;42.702;23.314;2023-07-13T05:07:42;39.00;37.30
20911;DHT22;10615;42.702;23.314;2023-07-13T05:08:42;39.40;37.30
20911;DHT22;10615;42.702;23.314;2023-07-13T05:09:43;39.90;37.00
20911;DHT22;10615;42.702;23.314;2023-07-13T05:10:44;40.50;36.50
20911;DHT22;10615;42.702;23.314;2023-07-13T05:11:44;41.20;35.90
20911;DHT22;10615;42.702;23.314;2023-07-13T05:12:45;41.90;35.10
20911;DHT22;10615;42.702;23.314;2023-07-13T05:13:46;42.40;34.10
20911;DHT22;10615;42.702;23.314;2023-07-13T05:14:46;42.70;33.40
20911;DHT22;10615;42.702;23.314;2023-07-13T05:15:59;43.20;33.10
20911;DHT22;10615;42.702;23.314;2023-07-13T05:16:59;43.80;32.20
20911;DHT22;10615;42.702;23.314;2023-07-13T05:18:00;44.40;31.70
20911;DHT22;10615;42.702;23.314;2023-07-13T05:19:01;44.90;31.10
20911;DHT22;10615;42.702;23.314;2023-07-13T05:20:02;45.50;30.30
20911;DHT22;10615;42.702;23.314;2023-07-13T05:21:05;46.00;29.80
20911;DHT22;10615;42.702;23.314;2023-07-13T05:22:06;46.40;29.40
20911;DHT22;10615;42.702;23.314;2023-07-13T05:23:07;46.80;28.90
20911;DHT22;10615;42.702;23.314;2023-07-13T05:24:08;47.20;28.60
20911;DHT22;10615;42.702;23.314;2023-07-13T05:25:09;47.80;28.10
20911;DHT22;10615;42.702;23.314;2023-07-13T05:26:10;48.10;28.40
20911;DHT22;10615;42.702;23.314;2023-07-13T05:27:11;48.50;27.40
20911;DHT22;10615;42.702;23.314;2023-07-13T05:29:13;49.40;26.30
20911;DHT22;10615;42.702;23.314;2023-07-13T05:30:13;49.80;26.40
20911;DHT22;10615;42.702;23.314;2023-07-13T05:31:14;50.00;25.90
20911;DHT22;10615;42.702;23.314;2023-07-13T05:32:16;50.30;25.70
20911;DHT22;10615;42.702;23.314;2023-07-13T05:33:17;50.70;25.40
20911;DHT22;10615;42.702;23.314;2023-07-13T05:34:18;50.90;25.10
20911;DHT22;10615;42.702;23.314;2023-07-13T05:35:19;51.10;24.80
20911;DHT22;10615;42.702;23.314;2023-07-13T05:36:19;51.30;24.60
20911;DHT22;10615;42.702;23.314;2023-07-13T05:37:20;51.50;24.40
20911;DHT22;10615;42.702;23.314;2023-07-13T05:38:20;51.90;24.20
20911;DHT22;10615;42.702;23.314;2023-07-13T05:40:22;52.60;23.10
20911;DHT22;10615;42.702;23.314;2023-07-13T05:41:23;52.70;23.30
20911;DHT22;10615;42.702;23.314;2023-07-13T05:42:24;53.00;23.20
20911;DHT22;10615;42.702;23.314;2023-07-13T05:43:25;53.20;23.00
20911;DHT22;10615;42.702;23.314;2023-07-13T05:44:25;53.30;22.90
20911;DHT22;10615;42.702;23.314;2023-07-13T05:45:26;53.40;22.80
20911;DHT22;10615;42.702;23.314;2023-07-13T05:46:27;53.40;22.70
20911;DHT22;10615;42.702;23.314;2023-07-13T05:47:28;53.60;22.50
20911;DHT22;10615;42.702;23.314;2023-07-13T05:48:28;53.80;22.30
20911;DHT22;10615;42.702;23.314;2023-07-13T05:49:30;54.10;22.90
20911;DHT22;10615;42.702;23.314;2023-07-13T05:50:31;54.40;22.00
20911;DHT22;10615;42.702;23.314;2023-07-13T05:51:32;54.50;21.80
20911;DHT22;10615;42.702;23.314;2023-07-13T05:52:32;54.80;21.70
20911;DHT22;10615;42.702;23.314;2023-07-13T05:53:34;54.70;21.50
20911;DHT22;10615;42.702;23.314;2023-07-13T05:54:35;54.90;21.50
20911;DHT22;10615;42.702;23.314;2023-07-13T05:55:44;55.10;21.30
20911;DHT22;10615;42.702;23.314;2023-07-13T05:56:47;55.20;21.10
20911;DHT22;10615;42.702;23.314;2023-07-13T05:57:48;55.30;21.00
20911;DHT22;10615;42.702;23.314;2023-07-13T05:58:49;55.40;21.00
20911;DHT22;10615;42.702;23.314;2023-07-13T05:59:50;55.50;20.90
20911;DHT22;10615;42.702;23.314;2023-07-13T06:01:03;55.00;20.80
20911;DHT22;10615;42.702;23.314;2023-07-13T06:02:04;54.80;21.00
20911;DHT22;10615;42.702;23.314;2023-07-13T06:03:06;54.70;21.20
20911;DHT22;10615;42.702;23.314;2023-07-13T06:04:07;54.80;21.20
20911;DHT22;10615;42.702;23.314;2023-07-13T06:05:08;54.80;21.10
20911;DHT22;10615;42.702;23.314;2023-07-13T06:06:10;55.00;21.00
20911;DHT22;10615;42.702;23.314;2023-07-13T06:07:10;55.00;20.90
20911;DHT22;10615;42.702;23.314;2023-07-13T06:08:11;54.80;20.80
20911;DHT22;10615;42.702;23.314;2023-07-13T06:09:12;54.60;20.80
20911;DHT22;10615;42.702;23.314;2023-07-13T06:10:13;54.60;20.90
20911;DHT22;10615;42.702;23.314;2023-07-13T06:11:18;54.60;20.80
20911;DHT22;10615;42.702;23.314;2023-07-13T06:12:19;54.30;20.90
20911;DHT22;10615;42.702;23.314;2023-07-13T06:13:20;54.20;21.00
20911;DHT22;10615;42.702;23.314;2023-07-13T06:14:21;54.50;21.00
20911;DHT22;10615;42.702;23.314;2023-07-13T06:15:21;54.60;20.90
20911;DHT22;10615;42.702;23.314;2023-07-13T06:16:23;54.60;20.70
20911;DHT22;10615;42.702;23.314;2023-07-13T06:17:23;54.40;20.70
20911;DHT22;10615;42.702;23.314;2023-07-13T06:18:24;54.70;20.90
20911;DHT22;10615;42.702;23.314;2023-07-13T06:19:25;54.90;20.80
20911;DHT22;10615;42.702;23.314;2023-07-13T06:20:26;55.10;20.90
20911;DHT22;10615;42.702;23.314;2023-07-13T06:21:26;55.30;20.60
20911;DHT22;10615;42.702;23.314;2023-07-13T06:22:27;55.40;20.60
20911;DHT22;10615;42.702;23.314;2023-07-13T06:23:28;55.70;20.50
20911;DHT22;10615;42.702;23.314;2023-07-13T06:24:28;55.50;20.30
20911;DHT22;10615;42.702;23.314;2023-07-13T06:25:29;55.30;20.30
20911;DHT22;10615;42.702;23.314;2023-07-13T06:26:30;55.40;20.30
20911;DHT22;10615;42.702;23.314;2023-07-13T06:27:32;55.80;20.20